createdAt,value
2019-02-28T00:01:47.191Z,100080.76
2019-02-28T00:04:17.850Z,100069.56
2019-02-28T00:06:48.378Z,100070.36
2019-02-28T00:09:18.935Z,100068.73
2019-02-28T00:11:49.442Z,100061.26
2019-02-28T00:14:19.900Z,100059.41
2019-02-28T00:16:50.450Z,100065.41
2019-02-28T00:19:23.632Z,100059.09
2019-02-28T00:21:53.159Z,100039.43
2019-02-28T00:24:23.624Z,100044.47
2019-02-28T00:26:54.072Z,100037.84
2019-02-28T00:29:24.567Z,100048.08
2019-02-28T00:31:55.015Z,100043.83
2019-02-28T00:34:25.508Z,100045.81
2019-02-28T00:36:56.085Z,100036.94
2019-02-28T00:39:26.537Z,100040.05
2019-02-28T00:41:57.028Z,100036.64
2019-02-28T00:44:30.481Z,100031.88
2019-02-28T00:46:59.673Z,100021.56
2019-02-28T00:49:30.173Z,100022.27
2019-02-28T00:52:01.560Z,100023.83
2019-02-28T00:54:32.698Z,100026.93
2019-02-28T00:57:03.205Z,100027.05
2019-02-28T00:59:33.667Z,100028.69
2019-02-28T01:02:04.253Z,100021.33
2019-02-28T01:04:34.713Z,100027.25
2019-02-28T01:07:05.177Z,100019.26
2019-02-28T01:09:35.679Z,100020.06
2019-02-28T01:12:06.282Z,100014.61
2019-02-28T01:14:36.737Z,100015.95
2019-02-28T01:17:07.222Z,100016.72
2019-02-28T01:19:41.339Z,100006.34
2019-02-28T01:22:09.908Z,100009.67
2019-02-28T01:24:40.443Z,100007.93
2019-02-28T01:27:10.909Z,100015.30
2019-02-28T01:29:41.519Z,100009.82
2019-02-28T01:32:15.271Z,100009.00
2019-02-28T01:34:44.150Z,100001.55
2019-02-28T01:37:14.639Z,99995.34
2019-02-28T01:39:45.127Z,100001.02
2019-02-28T01:42:16.298Z,99992.84
2019-02-28T01:44:47.742Z,100000.09
2019-02-28T01:47:19.999Z,99996.88
2019-02-28T01:49:50.364Z,99997.60
2019-02-28T01:52:20.797Z,99988.99
2019-02-28T01:54:51.291Z,99991.39
2019-02-28T01:57:21.750Z,99877.11
2019-02-28T01:59:52.899Z,99985.47
2019-02-28T02:02:24.074Z,99983.27
2019-02-28T02:04:54.523Z,99991.97
2019-02-28T02:07:25.107Z,99992.30
2019-02-28T02:09:55.662Z,99988.88
2019-02-28T02:12:26.234Z,99981.82
2019-02-28T02:14:56.690Z,99981.93
2019-02-28T02:17:27.183Z,99976.95
2019-02-28T02:19:57.670Z,99974.26
2019-02-28T02:22:28.130Z,99977.44
2019-02-28T02:24:59.322Z,99974.55
2019-02-28T02:27:30.840Z,99980.56
2019-02-28T02:30:01.346Z,99969.98
2019-02-28T02:32:37.453Z,99960.35
2019-02-28T02:35:08.108Z,99967.56
2019-02-28T02:37:36.247Z,99969.77
2019-02-28T02:40:07.182Z,99966.22
2019-02-28T02:42:37.718Z,99969.72
2019-02-28T02:45:09.347Z,99962.77
2019-02-28T02:47:39.851Z,99964.48
2019-02-28T02:50:12.128Z,99962.52
2019-02-28T02:52:42.665Z,99960.89
2019-02-28T02:55:13.495Z,99964.58
2019-02-28T02:57:50.686Z,99962.92
2019-02-28T03:00:17.530Z,99956.77
2019-02-28T03:02:48.127Z,99956.55
2019-02-28T03:05:18.592Z,99952.97
2019-02-28T03:07:49.036Z,99941.56
2019-02-28T03:10:19.977Z,99952.22
2019-02-28T03:12:50.536Z,99961.20
2019-02-28T03:15:26.934Z,99945.73
2019-02-28T03:17:53.168Z,99940.03
2019-02-28T03:20:23.619Z,99950.41
2019-02-28T03:22:54.091Z,99948.73
2019-02-28T03:25:28.259Z,99945.88
2019-02-28T03:27:57.000Z,99945.49
2019-02-28T03:30:32.005Z,99942.83
2019-02-28T03:32:59.645Z,99947.09
2019-02-28T03:35:40.312Z,99938.17
2019-02-28T03:38:02.272Z,99945.00
2019-02-28T03:40:39.796Z,99938.06
2019-02-28T03:43:06.666Z,99938.99
2019-02-28T03:45:37.166Z,99945.83
2019-02-28T03:48:07.664Z,99942.12
2019-02-28T03:50:38.117Z,99931.12
2019-02-28T03:53:08.620Z,99932.16
2019-02-28T03:55:40.813Z,99938.03
2019-02-28T03:58:11.651Z,99938.17
2019-02-28T04:00:42.229Z,99926.26
2019-02-28T04:03:12.712Z,99912.75
2019-02-28T04:05:43.389Z,99921.08
2019-02-28T04:08:13.871Z,99915.50
2019-02-28T04:10:44.315Z,99894.09
2019-02-28T04:13:19.178Z,99911.05
2019-02-28T04:16:02.349Z,99901.09
2019-02-28T04:18:19.207Z,99888.91
2019-02-28T04:20:49.663Z,99889.87
2019-02-28T04:23:20.165Z,99889.34
2019-02-28T04:25:50.611Z,99887.89
2019-02-28T04:28:21.307Z,99888.52
2019-02-28T04:30:51.727Z,99891.62
2019-02-28T04:33:22.236Z,99883.44
2019-02-28T04:35:52.692Z,99883.14
2019-02-28T04:38:23.165Z,99885.83
2019-02-28T04:40:53.674Z,99882.89
2019-02-28T04:43:24.141Z,99891.30
2019-02-28T04:45:57.694Z,99880.45
2019-02-28T04:48:26.783Z,99887.77
2019-02-28T04:50:57.280Z,99892.34
2019-02-28T04:53:27.831Z,99891.64
2019-02-28T04:55:58.350Z,99887.49
2019-02-28T04:58:28.797Z,99887.93
2019-02-28T05:00:59.276Z,99885.87
2019-02-28T05:03:29.718Z,99891.44
2019-02-28T05:06:00.216Z,99886.16
2019-02-28T05:08:30.664Z,99895.63
2019-02-28T05:11:01.115Z,99903.18
2019-02-28T05:13:31.606Z,99896.05
2019-02-28T05:16:02.102Z,99895.66
2019-02-28T05:18:32.594Z,99898.02
2019-02-28T05:21:03.056Z,99898.42
2019-02-28T05:23:36.041Z,99892.44
2019-02-28T05:26:05.701Z,99894.08
2019-02-28T05:28:40.177Z,99888.21
2019-02-28T05:31:08.339Z,99888.11
2019-02-28T05:33:42.018Z,99878.50
2019-02-28T05:36:11.079Z,99884.00
2019-02-28T05:38:41.586Z,99887.75
2019-02-28T05:41:15.274Z,99890.25
2019-02-28T05:43:46.395Z,99892.31
2019-02-28T05:46:16.879Z,99886.30
2019-02-28T05:48:47.678Z,99874.18
2019-02-28T05:51:18.189Z,99870.87
2019-02-28T05:53:48.629Z,99872.21
2019-02-28T05:56:19.126Z,99874.80
2019-02-28T05:58:52.474Z,99872.22
2019-02-28T06:01:21.815Z,99870.36
2019-02-28T06:03:52.334Z,99873.14
2019-02-28T06:06:25.377Z,99869.81
2019-02-28T06:08:55.063Z,99878.21
2019-02-28T06:11:25.539Z,99870.45
2019-02-28T06:13:56.052Z,99880.04
2019-02-28T06:16:26.568Z,99884.08
2019-02-28T06:18:57.225Z,99880.41
2019-02-28T06:21:27.682Z,99880.09
2019-02-28T06:23:58.188Z,99889.08
2019-02-28T06:26:31.914Z,99882.62
2019-02-28T06:29:04.739Z,99882.72
2019-02-28T06:31:34.416Z,99774.41
2019-02-28T06:34:05.652Z,99867.64
2019-02-28T06:36:37.287Z,99880.80
2019-02-28T06:39:08.553Z,99871.77
2019-02-28T06:41:39.979Z,99869.23
2019-02-28T06:44:11.809Z,99858.17
2019-02-28T06:46:42.310Z,99870.20
2019-02-28T06:49:12.813Z,99857.17
2019-02-28T06:51:43.291Z,99859.74
2019-02-28T06:54:13.769Z,99859.83
2019-02-28T06:56:44.487Z,99855.52
2019-02-28T06:59:15.101Z,99858.15
2019-02-28T07:01:45.594Z,99866.12
2019-02-28T07:04:16.086Z,99867.59
2019-02-28T07:06:46.633Z,99859.98
2019-02-28T07:09:17.084Z,99873.01
2019-02-28T07:11:47.647Z,99866.00
2019-02-28T07:14:18.172Z,99886.42
2019-02-28T07:16:48.743Z,99878.62
2019-02-28T07:19:19.341Z,99864.48
2019-02-28T07:21:49.824Z,99877.58
2019-02-28T07:24:20.716Z,99882.52
2019-02-28T07:26:52.295Z,99872.70
2019-02-28T07:29:23.533Z,99888.70
2019-02-28T07:31:59.992Z,99877.73
2019-02-28T07:34:26.622Z,99888.61
2019-02-28T07:36:57.066Z,99882.53
2019-02-28T07:39:30.399Z,99883.59
2019-02-28T07:42:02.245Z,99868.48
2019-02-28T07:44:33.212Z,99867.94
2019-02-28T07:47:03.757Z,99878.31
2019-02-28T07:49:36.797Z,99870.19
2019-02-28T07:52:06.561Z,99879.06
2019-02-28T07:54:37.111Z,99860.88
2019-02-28T07:57:07.584Z,99880.08
2019-02-28T07:59:42.406Z,99861.27
2019-02-28T08:02:13.251Z,99829.06
2019-02-28T08:04:50.627Z,99839.32
2019-02-28T08:07:19.816Z,99857.70
2019-02-28T08:09:50.321Z,99841.30
2019-02-28T08:12:20.835Z,99843.69
2019-02-28T08:14:51.305Z,99850.62
2019-02-28T08:17:21.798Z,99848.19
2019-02-28T08:19:52.281Z,99844.03
2019-02-28T08:22:24.362Z,99850.11
2019-02-28T08:24:55.357Z,99833.84
2019-02-28T08:27:26.260Z,99836.66
2019-02-28T08:29:56.880Z,99829.39
2019-02-28T08:32:27.366Z,99821.41
2019-02-28T08:34:59.529Z,99826.66
2019-02-28T08:37:30.121Z,99820.75
2019-02-28T08:40:00.669Z,99820.38
2019-02-28T08:42:31.254Z,99817.62
2019-02-28T08:45:01.766Z,99815.75
2019-02-28T08:47:32.316Z,99808.31
2019-02-28T08:50:02.990Z,99797.47
2019-02-28T08:52:33.494Z,99793.76
2019-02-28T08:55:07.035Z,99808.91
2019-02-28T08:57:36.176Z,99796.67
2019-02-28T09:00:08.467Z,99782.80
2019-02-28T09:02:39.351Z,99794.34
2019-02-28T09:05:10.334Z,99786.69
2019-02-28T09:07:40.959Z,99786.56
2019-02-28T09:10:16.808Z,99784.88
2019-02-28T09:12:47.571Z,99771.05
2019-02-28T09:15:18.623Z,99765.59
2019-02-28T09:17:49.293Z,99764.77
2019-02-28T09:20:20.299Z,99533.12
2019-02-28T09:22:51.069Z,99755.80
2019-02-28T09:25:22.763Z,99744.98
2019-02-28T09:27:53.575Z,99752.08
2019-02-28T09:30:29.635Z,99738.59
2019-02-28T09:32:58.975Z,99748.78
2019-02-28T09:35:29.810Z,99738.83
2019-02-28T09:38:06.268Z,99723.38
2019-02-28T09:40:34.005Z,99733.55
2019-02-28T09:43:04.600Z,99727.72
2019-02-28T09:45:35.096Z,99715.71
2019-02-28T09:48:05.831Z,99723.86
2019-02-28T09:50:36.308Z,99725.39
2019-02-28T09:53:06.798Z,99720.47
2019-02-28T09:55:37.276Z,99715.61
2019-02-28T09:58:07.932Z,99712.60
2019-02-28T10:00:38.906Z,99705.53
2019-02-28T10:03:09.391Z,99682.43
2019-02-28T10:05:42.544Z,99701.46
2019-02-28T10:08:12.067Z,99668.05
2019-02-28T10:10:42.598Z,99667.33
2019-02-28T10:13:14.535Z,99671.77
2019-02-28T10:15:45.377Z,99666.54
2019-02-28T10:18:15.862Z,99675.20
2019-02-28T10:20:46.354Z,99670.69
2019-02-28T10:23:18.432Z,99683.69
2019-02-28T10:25:49.198Z,99673.56
2019-02-28T10:28:19.772Z,99591.06
2019-02-28T10:30:50.899Z,99665.45
2019-02-28T10:33:21.469Z,99560.81
2019-02-28T10:35:52.000Z,99662.33
2019-02-28T10:38:22.563Z,99674.75
2019-02-28T10:40:53.334Z,99648.80
2019-02-28T10:43:23.963Z,99651.34
2019-02-28T10:45:54.600Z,99655.34
2019-02-28T10:48:25.625Z,99546.70
2019-02-28T10:50:56.488Z,99627.59
2019-02-28T10:53:27.015Z,99637.12
2019-02-28T10:55:57.969Z,99637.69
2019-02-28T10:58:29.638Z,99622.39
2019-02-28T11:01:00.226Z,99627.01
2019-02-28T11:03:32.200Z,99620.27
2019-02-28T11:06:03.161Z,99617.73
2019-02-28T11:08:33.973Z,99612.87
2019-02-28T11:11:07.399Z,99609.41
2019-02-28T11:13:37.000Z,99608.59
2019-02-28T11:16:07.706Z,99484.09
2019-02-28T11:18:38.330Z,99600.20
2019-02-28T11:21:08.969Z,99589.37
2019-02-28T11:23:39.574Z,99571.20
2019-02-28T11:26:10.462Z,99564.55
2019-02-28T11:28:41.186Z,99546.85
2019-02-28T11:31:11.873Z,99543.87
2019-02-28T11:33:42.455Z,99551.02
2019-02-28T11:36:13.125Z,99545.57
2019-02-28T11:38:43.732Z,99535.25
2019-02-28T11:41:15.467Z,99524.09
2019-02-28T11:43:46.508Z,99529.23
2019-02-28T11:46:17.422Z,99497.69
2019-02-28T11:48:47.998Z,99517.33
2019-02-28T11:51:18.707Z,99512.19
2019-02-28T11:53:49.160Z,99491.48
2019-02-28T11:56:19.780Z,99500.48
2019-02-28T11:58:51.757Z,99478.41
2019-02-28T12:01:22.408Z,99474.91
2019-02-28T12:03:53.015Z,99470.30
2019-02-28T12:06:25.635Z,99477.11
2019-02-28T12:08:58.537Z,99485.88
2019-02-28T12:11:29.144Z,99471.69
2019-02-28T12:13:59.620Z,99465.13
2019-02-28T12:16:30.165Z,99457.78
2019-02-28T12:19:00.621Z,99465.44
2019-02-28T12:21:31.102Z,99458.33
2019-02-28T12:24:01.760Z,99452.05
2019-02-28T12:26:32.317Z,99449.06
2019-02-28T12:29:02.811Z,99441.16
2019-02-28T12:31:35.604Z,99429.42
2019-02-28T12:34:05.499Z,99437.60
2019-02-28T12:36:36.028Z,99420.42
2019-02-28T12:39:08.815Z,99410.60
2019-02-28T12:41:40.144Z,99422.90
2019-02-28T12:44:12.342Z,99419.88
2019-02-28T12:46:43.722Z,99416.05
2019-02-28T12:49:14.177Z,99416.05
2019-02-28T12:51:44.685Z,99395.86
2019-02-28T12:54:15.188Z,99406.48
2019-02-28T12:56:47.829Z,99415.23
2019-02-28T12:59:18.002Z,99409.46
2019-02-28T13:01:48.541Z,99412.72
2019-02-28T13:04:19.035Z,99416.28
2019-02-28T13:06:49.751Z,99400.97
2019-02-28T13:09:20.362Z,99381.53
2019-02-28T13:11:51.065Z,99406.98
2019-02-28T13:14:21.580Z,99381.00
2019-02-28T13:16:54.610Z,99401.25
2019-02-28T13:19:25.561Z,99382.63
2019-02-28T13:21:56.214Z,99229.45
2019-02-28T13:24:26.709Z,99378.56
2019-02-28T13:26:57.199Z,99361.05
2019-02-28T13:29:28.783Z,99346.30
2019-02-28T13:32:01.474Z,99239.73
2019-02-28T13:34:32.281Z,99359.95
2019-02-28T13:37:03.222Z,99355.02
2019-02-28T13:39:33.756Z,99343.52
2019-02-28T13:42:04.429Z,99338.62
2019-02-28T13:44:36.296Z,99318.39
2019-02-28T13:47:09.834Z,99341.04
2019-02-28T13:49:39.397Z,99338.27
2019-02-28T13:52:09.877Z,99336.89
2019-02-28T13:54:42.105Z,99327.64
2019-02-28T13:57:12.599Z,99221.95
2019-02-28T13:59:43.129Z,99324.06
2019-02-28T14:02:14.058Z,99323.24
2019-02-28T14:04:44.538Z,99326.20
2019-02-28T14:07:15.005Z,99325.42
2019-02-28T14:09:45.586Z,99292.34
2019-02-28T14:12:20.062Z,99327.62
2019-02-28T14:14:48.649Z,99322.94
2019-02-28T14:17:19.220Z,99288.20
2019-02-28T14:19:52.768Z,99286.56
2019-02-28T14:22:21.887Z,99292.84
2019-02-28T14:24:52.403Z,99289.02
2019-02-28T14:27:25.237Z,99284.66
2019-02-28T14:29:55.125Z,99181.00
2019-02-28T14:32:25.717Z,99277.30
2019-02-28T14:34:57.327Z,99280.88
2019-02-28T14:37:28.589Z,99283.07
2019-02-28T14:39:59.123Z,99276.00
2019-02-28T14:42:29.594Z,99283.67
2019-02-28T14:45:00.247Z,99282.05
2019-02-28T14:47:30.832Z,99277.06
2019-02-28T14:50:01.368Z,99267.52
2019-02-28T14:52:32.250Z,99274.72
2019-02-28T14:55:02.772Z,99265.92
2019-02-28T14:57:33.245Z,99263.77
2019-02-28T15:00:06.507Z,99267.60
2019-02-28T15:02:36.300Z,99271.74
2019-02-28T15:05:08.805Z,99271.79
2019-02-28T15:07:41.441Z,99269.89
2019-02-28T15:10:14.228Z,99271.50
2019-02-28T15:12:44.983Z,99262.77
2019-02-28T15:15:18.031Z,99267.38
2019-02-28T15:17:49.490Z,99258.41
2019-02-28T15:20:20.370Z,99251.64
2019-02-28T15:22:52.496Z,99262.56
2019-02-28T15:25:23.237Z,99245.08
2019-02-28T15:27:53.697Z,99250.54
2019-02-28T15:30:26.379Z,99245.34
2019-02-28T15:32:56.842Z,99246.98
2019-02-28T15:35:27.635Z,99249.73
2019-02-28T15:37:58.202Z,99248.91
2019-02-28T15:40:30.789Z,99245.36
2019-02-28T15:43:01.249Z,99248.66
2019-02-28T15:45:31.971Z,99245.17
2019-02-28T15:48:02.445Z,99249.02
2019-02-28T15:50:32.965Z,99246.54
2019-02-28T15:53:03.542Z,99253.37
2019-02-28T15:55:35.479Z,99245.47
2019-02-28T15:58:07.099Z,99242.73
2019-02-28T16:00:37.969Z,99243.05
2019-02-28T16:03:08.483Z,99238.16
2019-02-28T16:05:44.004Z,99236.83
2019-02-28T16:08:11.201Z,99235.74
2019-02-28T16:10:52.630Z,99235.47
2019-02-28T16:13:14.125Z,99235.72
2019-02-28T16:15:46.367Z,99233.27
2019-02-28T16:18:16.891Z,99222.39
2019-02-28T16:20:47.489Z,99219.38
2019-02-28T16:23:18.067Z,99220.51
2019-02-28T16:25:50.146Z,99225.67
2019-02-28T16:28:20.774Z,99227.85
2019-02-28T16:30:51.291Z,99230.04
2019-02-28T16:33:24.915Z,99227.30
2019-02-28T16:35:54.131Z,99221.33
2019-02-28T16:38:24.610Z,99226.99
2019-02-28T16:40:57.736Z,99232.44
2019-02-28T16:43:27.416Z,99232.69
2019-02-28T16:45:57.882Z,99237.55
2019-02-28T16:48:28.386Z,99234.78
2019-02-28T16:50:58.996Z,99237.52
2019-02-28T16:53:29.449Z,99233.09
2019-02-28T16:56:02.572Z,99234.16
2019-02-28T16:58:32.152Z,99234.95
2019-02-28T17:01:02.607Z,99225.13
2019-02-28T17:03:33.124Z,99217.77
2019-02-28T17:06:03.597Z,99218.81
2019-02-28T17:08:38.889Z,99225.24
2019-02-28T17:11:09.349Z,99228.12
2019-02-28T17:13:42.439Z,99228.91
2019-02-28T17:16:26.421Z,99223.98
2019-02-28T17:18:57.456Z,99216.61
2019-02-28T17:21:27.860Z,99217.67
2019-02-28T17:23:58.381Z,99214.69
2019-02-28T17:27:06.260Z,99209.27
2019-02-28T17:29:48.933Z,99206.03
2019-02-28T17:32:19.779Z,99205.80
2019-02-28T17:34:50.232Z,99206.06
2019-02-28T17:37:26.046Z,99207.73
2019-02-28T17:39:53.018Z,99196.55
2019-02-28T17:42:23.639Z,99206.38
2019-02-28T17:45:10.100Z,99203.14
2019-02-28T17:48:36.210Z,99197.97
2019-02-28T17:51:28.058Z,99201.44
2019-02-28T17:54:36.290Z,99189.73
2019-02-28T17:57:41.656Z,99190.81
2019-02-28T18:00:51.901Z,99184.78
2019-02-28T18:03:50.525Z,99181.20
2019-02-28T18:07:04.638Z,99166.20
2019-02-28T18:10:24.331Z,99159.14
2019-02-28T18:13:35.552Z,99156.73
2019-02-28T18:16:31.772Z,99156.49
2019-02-28T18:19:37.474Z,99158.43
2019-02-28T18:22:32.644Z,99154.11
2019-02-28T18:25:44.659Z,99148.72
2019-02-28T18:28:39.841Z,99147.74
2019-02-28T18:31:19.253Z,99146.86
2019-02-28T18:34:17.035Z,99153.36
2019-02-28T18:36:48.809Z,99149.57
2019-02-28T18:39:19.278Z,99158.55
2019-02-28T18:41:50.807Z,99148.17
2019-02-28T18:44:21.382Z,99143.59
2019-02-28T18:46:51.841Z,99150.33
2019-02-28T18:49:22.363Z,99142.66
2019-02-28T18:51:52.834Z,99143.09
2019-02-28T18:54:23.288Z,99132.22
2019-02-28T18:56:53.804Z,99146.82
2019-02-28T18:59:24.761Z,99030.59
2019-02-28T19:01:55.282Z,99147.09
2019-02-28T19:04:25.747Z,99141.56
2019-02-28T19:06:56.263Z,99142.30
2019-02-28T19:09:26.827Z,99146.31
2019-02-28T19:11:57.337Z,99149.44
2019-02-28T19:14:27.804Z,99147.75
2019-02-28T19:16:58.317Z,99145.97
2019-02-28T19:19:28.783Z,99139.23
2019-02-28T19:21:59.421Z,99135.35
2019-02-28T19:24:29.889Z,99133.20
2019-02-28T19:27:00.362Z,99138.78
2019-02-28T19:29:30.883Z,99137.99
2019-02-28T19:32:01.452Z,99139.08
2019-02-28T19:34:31.979Z,99131.03
2019-02-28T19:37:02.436Z,99044.78
2019-02-28T19:39:32.968Z,99125.05
2019-02-28T19:42:03.552Z,99125.90
2019-02-28T19:44:34.158Z,99130.92
2019-02-28T19:47:04.624Z,99124.55
2019-02-28T19:49:35.237Z,99110.52
2019-02-28T19:52:05.838Z,99111.73
2019-02-28T19:54:36.301Z,99113.97
2019-02-28T19:57:06.803Z,99112.94
2019-02-28T19:59:37.261Z,99111.92
2019-02-28T20:02:07.852Z,99089.41
2019-02-28T20:04:38.312Z,99098.84
2019-02-28T20:07:08.909Z,99106.80
2019-02-28T20:09:39.823Z,99103.22
2019-02-28T20:12:10.342Z,99113.28
2019-02-28T20:14:40.957Z,99108.39
2019-02-28T20:17:11.680Z,99111.86
2019-02-28T20:19:42.244Z,99123.03
2019-02-28T20:22:12.750Z,99113.69
2019-02-28T20:24:43.402Z,99114.45
2019-02-28T20:27:14.451Z,99107.13
2019-02-28T20:29:44.955Z,99052.31
2019-02-28T20:32:15.572Z,99099.69
2019-02-28T20:34:46.034Z,99106.99
2019-02-28T20:37:16.647Z,99099.11
2019-02-28T20:39:47.113Z,99102.94
2019-02-28T20:42:19.572Z,99093.45
2019-02-28T20:44:49.956Z,99078.73
2019-02-28T20:47:20.507Z,99079.88
2019-02-28T20:49:50.973Z,99071.48
2019-02-28T20:52:21.488Z,99065.28
2019-02-28T20:54:51.951Z,99071.05
2019-02-28T20:57:22.465Z,99056.71
2019-02-28T20:59:52.917Z,99054.88
2019-02-28T21:02:23.370Z,99054.89
2019-02-28T21:04:53.895Z,99055.21
2019-02-28T21:07:24.345Z,99041.13
2019-02-28T21:09:54.841Z,99055.02
2019-02-28T21:12:25.368Z,99038.22
2019-02-28T21:14:55.819Z,99043.70
2019-02-28T21:17:29.360Z,99040.48
2019-02-28T21:19:58.514Z,99043.45
2019-02-28T21:22:28.979Z,99041.75
2019-02-28T21:24:59.436Z,99046.11
2019-02-28T21:27:29.946Z,99036.32
2019-02-28T21:30:00.402Z,99044.20
2019-02-28T21:32:30.914Z,99047.17
2019-02-28T21:35:01.609Z,99047.69
2019-02-28T21:37:32.071Z,99052.24
2019-02-28T21:40:02.592Z,99059.36
2019-02-28T21:42:33.092Z,99050.63
2019-02-28T21:45:03.572Z,99070.88
2019-02-28T21:47:34.185Z,99064.09
2019-02-28T21:50:05.430Z,99062.73
2019-02-28T21:52:35.888Z,99071.36
2019-02-28T21:55:07.552Z,99065.34
2019-02-28T21:57:38.165Z,99069.41
2019-02-28T22:00:14.667Z,99065.05
2019-02-28T22:02:45.115Z,99065.85
2019-02-28T22:05:15.831Z,99065.26
2019-02-28T22:07:46.288Z,99059.81
2019-02-28T22:10:16.865Z,99062.54
2019-02-28T22:12:47.480Z,99056.31
2019-02-28T22:15:18.538Z,99064.47
2019-02-28T22:17:49.111Z,99056.41
2019-02-28T22:20:19.769Z,99052.09
2019-02-28T22:22:50.237Z,99058.09
2019-02-28T22:25:20.811Z,99066.78
2019-02-28T22:27:51.412Z,99058.95
2019-02-28T22:30:43.813Z,99058.97
2019-02-28T22:33:21.332Z,99063.34
2019-02-28T22:35:54.432Z,99066.08
2019-02-28T22:38:24.906Z,99070.95
2019-02-28T22:40:55.469Z,99060.94
2019-02-28T22:43:25.935Z,99063.67
2019-02-28T22:45:56.464Z,99066.31
2019-02-28T22:48:26.947Z,99052.23
2019-02-28T22:50:57.469Z,99056.25
2019-02-28T22:53:27.985Z,99064.63
2019-02-28T22:55:58.501Z,99059.50
2019-02-28T22:58:29.012Z,99065.98
2019-02-28T23:01:05.890Z,99077.34
2019-02-28T23:03:36.795Z,99077.31
2019-02-28T23:06:07.634Z,99073.88
2019-02-28T23:08:38.320Z,99075.25
2019-02-28T23:11:08.917Z,99077.97
2019-02-28T23:13:39.479Z,99071.18
2019-02-28T23:16:09.991Z,99065.99
2019-02-28T23:18:40.452Z,99066.30
2019-02-28T23:21:10.902Z,99065.19
2019-02-28T23:23:41.402Z,99064.88
2019-02-28T23:26:15.853Z,99073.02
2019-02-28T23:28:53.347Z,99059.93
2019-02-28T23:31:58.578Z,98945.34
2019-02-28T23:34:49.737Z,99047.45
2019-02-28T23:37:20.233Z,99046.27
2019-02-28T23:39:50.949Z,99041.61
2019-02-28T23:42:21.462Z,99042.84
2019-02-28T23:44:51.954Z,99033.28
2019-02-28T23:47:22.398Z,99032.08
2019-02-28T23:49:52.853Z,99032.56
2019-02-28T23:52:23.357Z,99026.76
2019-02-28T23:54:53.835Z,99033.66
2019-02-28T23:57:24.310Z,99039.61
2019-02-28T23:59:54.793Z,99036.58
